createdAt,value
2019-02-22T00:02:21.718Z,8.90
2019-02-22T00:04:52.108Z,8.90
2019-02-22T00:07:22.451Z,8.90
2019-02-22T00:09:52.812Z,8.90
2019-02-22T00:12:23.182Z,8.90
2019-02-22T00:14:53.537Z,8.90
2019-02-22T00:17:24.895Z,8.80
2019-02-22T00:19:55.252Z,8.80
2019-02-22T00:22:25.638Z,8.80
2019-02-22T00:24:55.996Z,8.80
2019-02-22T00:27:26.387Z,8.80
2019-02-22T00:29:56.753Z,8.80
2019-02-22T00:32:27.129Z,8.80
2019-02-22T00:34:57.513Z,8.80
2019-02-22T00:37:27.925Z,8.80
2019-02-22T00:39:58.256Z,8.80
2019-02-22T00:42:28.645Z,8.80
2019-02-22T00:44:59.011Z,8.80
2019-02-22T00:47:29.393Z,8.70
2019-02-22T00:49:59.758Z,8.70
2019-02-22T00:52:30.141Z,8.70
2019-02-22T00:55:00.505Z,8.60
2019-02-22T00:57:30.894Z,8.60
2019-02-22T01:00:01.260Z,8.70
2019-02-22T01:02:31.661Z,8.70
2019-02-22T01:05:02.020Z,8.70
2019-02-22T01:07:32.404Z,8.70
2019-02-22T01:10:02.764Z,8.70
2019-02-22T01:12:33.148Z,8.60
2019-02-22T01:15:03.680Z,8.60
2019-02-22T01:17:35.133Z,8.60
2019-02-22T01:20:26.908Z,8.60
2019-02-22T01:22:57.362Z,8.60
2019-02-22T01:25:27.725Z,8.60
2019-02-22T01:27:58.157Z,8.50
2019-02-22T01:30:28.478Z,8.50
2019-02-22T01:32:58.870Z,8.50
2019-02-22T01:35:29.235Z,8.50
2019-02-22T01:37:59.620Z,8.50
2019-02-22T01:40:29.982Z,8.40
2019-02-22T01:43:00.365Z,8.40
2019-02-22T01:45:30.735Z,8.40
2019-02-22T01:48:01.107Z,8.40
2019-02-22T01:50:31.470Z,8.40
2019-02-22T01:53:01.849Z,8.40
2019-02-22T01:55:32.213Z,8.40
2019-02-22T01:58:02.591Z,8.40
2019-02-22T02:00:32.947Z,8.40
2019-02-22T02:03:03.330Z,8.40
2019-02-22T02:05:33.689Z,8.40
2019-02-22T02:08:04.071Z,8.30
2019-02-22T02:10:34.429Z,8.30
2019-02-22T02:13:04.877Z,8.30
2019-02-22T02:15:35.242Z,8.30
2019-02-22T02:18:05.617Z,8.30
2019-02-22T02:20:35.976Z,8.30
2019-02-22T02:23:06.355Z,8.30
2019-02-22T02:25:36.719Z,8.30
2019-02-22T02:28:07.107Z,8.30
2019-02-22T02:30:37.495Z,8.20
2019-02-22T02:33:07.857Z,8.20
2019-02-22T02:35:38.212Z,8.30
2019-02-22T02:38:08.593Z,8.30
2019-02-22T02:40:38.950Z,8.20
2019-02-22T02:43:09.329Z,8.20
2019-02-22T02:45:39.686Z,8.20
2019-02-22T02:48:10.073Z,8.30
2019-02-22T02:50:40.429Z,8.30
2019-02-22T02:53:10.813Z,8.30
2019-02-22T02:55:41.173Z,8.20
2019-02-22T02:58:11.552Z,8.20
2019-02-22T03:00:41.914Z,8.20
2019-02-22T03:03:12.289Z,8.30
2019-02-22T03:05:56.235Z,8.20
2019-02-22T03:08:28.255Z,8.20
2019-02-22T03:10:58.613Z,8.20
2019-02-22T03:13:28.991Z,8.20
2019-02-22T03:15:59.345Z,8.20
2019-02-22T03:18:29.728Z,8.10
2019-02-22T03:21:00.094Z,8.10
2019-02-22T03:23:30.474Z,8.10
2019-02-22T03:26:00.841Z,8.10
2019-02-22T03:28:31.224Z,8.10
2019-02-22T03:31:01.589Z,8.10
2019-02-22T03:33:31.964Z,8.10
2019-02-22T03:36:02.316Z,8.00
2019-02-22T03:38:32.761Z,8.10
2019-02-22T03:41:03.119Z,8.10
2019-02-22T03:43:33.496Z,8.10
2019-02-22T03:46:03.869Z,8.00
2019-02-22T03:48:35.194Z,8.00
2019-02-22T03:51:05.575Z,8.00
2019-02-22T03:53:37.793Z,8.00
2019-02-22T03:56:08.186Z,8.00
2019-02-22T03:58:38.619Z,8.00
2019-02-22T04:01:09.000Z,7.90
2019-02-22T04:03:39.341Z,7.90
2019-02-22T04:06:09.720Z,7.90
2019-02-22T04:08:41.748Z,7.90
2019-02-22T04:11:12.036Z,7.80
2019-02-22T04:13:42.392Z,7.80
2019-02-22T04:16:12.870Z,7.80
2019-02-22T04:18:43.223Z,7.70
2019-02-22T04:21:13.598Z,7.60
2019-02-22T04:23:43.946Z,7.50
2019-02-22T04:26:14.319Z,7.40
2019-02-22T04:28:44.669Z,7.30
2019-02-22T04:31:15.045Z,7.20
2019-02-22T04:33:45.398Z,7.20
2019-02-22T04:36:15.770Z,7.10
2019-02-22T04:38:46.125Z,7.10
2019-02-22T04:41:16.492Z,7.00
2019-02-22T04:43:46.848Z,7.00
2019-02-22T04:46:18.270Z,7.00
2019-02-22T04:48:48.758Z,6.90
2019-02-22T04:51:19.132Z,6.90
2019-02-22T04:53:49.481Z,6.80
2019-02-22T04:56:19.859Z,6.70
2019-02-22T04:58:50.219Z,6.70
2019-02-22T05:01:20.580Z,6.60
2019-02-22T05:03:50.932Z,6.60
2019-02-22T05:06:21.300Z,6.50
2019-02-22T05:08:51.709Z,6.50
2019-02-22T05:11:22.089Z,6.40
2019-02-22T05:13:52.444Z,6.40
2019-02-22T05:16:22.822Z,6.30
2019-02-22T05:18:53.185Z,6.20
2019-02-22T05:21:23.563Z,6.20
2019-02-22T05:23:53.918Z,5.80
2019-02-22T05:26:24.299Z,6.00
2019-02-22T05:28:54.655Z,5.90
2019-02-22T05:31:25.050Z,5.70
2019-02-22T05:33:55.402Z,5.70
2019-02-22T05:36:25.780Z,5.60
2019-02-22T05:38:56.144Z,5.50
2019-02-22T05:41:26.524Z,5.30
2019-02-22T05:43:56.906Z,5.30
2019-02-22T05:46:27.263Z,5.20
2019-02-22T05:48:57.623Z,5.10
2019-02-22T05:51:28.008Z,5.00
2019-02-22T05:53:59.440Z,4.90
2019-02-22T05:56:29.822Z,4.80
2019-02-22T05:59:00.182Z,4.80
2019-02-22T06:01:30.560Z,4.70
2019-02-22T06:04:00.979Z,4.70
2019-02-22T06:06:32.330Z,4.70
2019-02-22T06:09:03.859Z,4.70
2019-02-22T06:11:34.305Z,4.70
2019-02-22T06:14:04.659Z,4.60
2019-02-22T06:16:36.680Z,4.60
2019-02-22T06:19:07.033Z,4.50
2019-02-22T06:21:37.419Z,4.50
2019-02-22T06:24:07.773Z,4.60
2019-02-22T06:26:38.145Z,4.60
2019-02-22T06:29:08.501Z,4.60
2019-02-22T06:31:38.876Z,4.60
2019-02-22T06:34:09.236Z,4.60
2019-02-22T06:36:39.621Z,4.60
2019-02-22T06:39:09.981Z,4.60
2019-02-22T06:41:40.362Z,4.60
2019-02-22T06:44:12.000Z,4.50
2019-02-22T06:46:42.384Z,4.50
2019-02-22T06:49:12.745Z,4.40
2019-02-22T06:51:43.127Z,4.50
2019-02-22T06:54:13.497Z,4.40
2019-02-22T06:56:43.879Z,4.40
2019-02-22T06:59:14.359Z,4.40
2019-02-22T07:01:49.997Z,4.40
2019-02-22T07:04:19.691Z,4.40
2019-02-22T07:06:50.069Z,4.30
2019-02-22T07:09:20.432Z,4.40
2019-02-22T07:11:52.456Z,4.30
2019-02-22T07:14:22.818Z,4.30
2019-02-22T07:16:53.222Z,4.20
2019-02-22T07:19:23.575Z,4.20
2019-02-22T07:21:54.011Z,4.20
2019-02-22T07:24:24.353Z,4.10
2019-02-22T07:26:54.735Z,4.10
2019-02-22T07:29:25.208Z,4.00
2019-02-22T07:32:05.269Z,3.90
2019-02-22T07:34:40.347Z,3.90
2019-02-22T07:37:10.743Z,3.90
2019-02-22T07:39:53.426Z,3.90
2019-02-22T07:42:23.794Z,3.90
2019-02-22T07:44:54.151Z,3.90
2019-02-22T07:47:24.619Z,3.80
2019-02-22T07:49:54.974Z,3.80
2019-02-22T07:52:25.396Z,3.80
2019-02-22T07:54:55.729Z,3.70
2019-02-22T07:57:26.114Z,3.70
2019-02-22T07:59:56.465Z,3.60
2019-02-22T08:02:26.841Z,3.50
2019-02-22T08:04:57.188Z,4.60
2019-02-22T08:07:27.568Z,6.50
2019-02-22T08:09:57.914Z,7.40
2019-02-22T08:12:28.287Z,7.40
2019-02-22T08:14:58.697Z,6.10
2019-02-22T08:17:29.027Z,4.90
2019-02-22T08:19:59.365Z,4.30
2019-02-22T08:22:29.748Z,3.90
2019-02-22T08:25:00.149Z,3.80
2019-02-22T08:27:30.539Z,3.60
2019-02-22T08:30:00.930Z,3.50
2019-02-22T08:32:31.365Z,3.50
2019-02-22T08:35:01.853Z,3.50
2019-02-22T08:37:32.268Z,3.40
2019-02-22T08:40:02.945Z,3.40
2019-02-22T08:42:33.347Z,3.40
2019-02-22T08:45:09.532Z,3.40
2019-02-22T08:47:39.164Z,3.40
2019-02-22T08:50:10.753Z,3.40
2019-02-22T08:52:41.113Z,3.50
2019-02-22T08:55:11.561Z,3.50
2019-02-22T08:57:41.994Z,3.50
2019-02-22T09:00:13.617Z,3.50
2019-02-22T09:02:44.072Z,3.60
2019-02-22T09:05:14.594Z,3.70
2019-02-22T09:07:44.962Z,3.80
2019-02-22T09:10:15.488Z,4.00
2019-02-22T09:12:45.931Z,4.20
2019-02-22T09:15:16.277Z,4.20
2019-02-22T09:17:46.650Z,4.30
2019-02-22T09:20:17.003Z,4.20
2019-02-22T09:22:47.380Z,4.10
2019-02-22T09:25:17.729Z,4.10
2019-02-22T09:27:48.175Z,4.20
2019-02-22T09:30:18.527Z,4.20
2019-02-22T09:32:48.965Z,4.30
2019-02-22T09:35:20.260Z,4.40
2019-02-22T09:37:50.634Z,4.50
2019-02-22T09:40:20.986Z,4.60
2019-02-22T09:42:51.371Z,5.10
2019-02-22T09:45:24.322Z,5.60
2019-02-22T09:47:53.799Z,6.70
2019-02-22T09:50:24.197Z,8.80
2019-02-22T09:52:54.567Z,12.60
2019-02-22T09:55:24.973Z,16.00
2019-02-22T09:57:55.345Z,17.00
2019-02-22T10:00:25.768Z,18.40
2019-02-22T10:02:56.139Z,18.90
2019-02-22T10:05:26.713Z,18.90
2019-02-22T10:07:57.097Z,20.00
2019-02-22T10:10:27.505Z,20.20
2019-02-22T10:12:57.877Z,19.20
2019-02-22T10:15:28.297Z,18.60
2019-02-22T10:17:58.657Z,17.80
2019-02-22T10:20:29.039Z,18.10
2019-02-22T10:22:59.423Z,18.90
2019-02-22T10:25:30.692Z,18.00
2019-02-22T10:28:01.265Z,18.30
2019-02-22T10:30:31.642Z,17.20
2019-02-22T10:33:02.051Z,16.90
2019-02-22T10:35:32.436Z,16.40
2019-02-22T10:38:02.822Z,16.30
2019-02-22T10:40:33.207Z,15.40
2019-02-22T10:43:03.581Z,15.40
2019-02-22T10:45:33.957Z,15.90
2019-02-22T10:48:04.397Z,16.00
2019-02-22T10:50:34.780Z,16.30
2019-02-22T10:53:05.144Z,16.50
2019-02-22T10:55:35.532Z,16.60
2019-02-22T10:58:05.898Z,17.10
2019-02-22T11:00:36.282Z,18.10
2019-02-22T11:03:06.642Z,18.00
2019-02-22T11:05:37.052Z,19.30
2019-02-22T11:08:07.533Z,19.50
2019-02-22T11:10:37.907Z,20.00
2019-02-22T11:13:08.283Z,18.90
2019-02-22T11:15:38.658Z,19.00
2019-02-22T11:18:09.085Z,20.30
2019-02-22T11:20:39.473Z,20.50
2019-02-22T11:23:09.846Z,20.20
2019-02-22T11:25:40.217Z,20.90
2019-02-22T11:28:10.580Z,21.50
2019-02-22T11:30:40.971Z,22.40
2019-02-22T11:33:11.335Z,22.10
2019-02-22T11:35:41.719Z,22.40
2019-02-22T11:38:12.091Z,22.70
2019-02-22T11:40:43.638Z,23.20
2019-02-22T11:43:14.002Z,23.20
2019-02-22T11:45:44.388Z,23.20
2019-02-22T11:48:14.762Z,23.70
2019-02-22T11:50:45.142Z,22.20
2019-02-22T11:53:15.508Z,21.40
2019-02-22T11:55:45.889Z,20.60
2019-02-22T11:58:16.319Z,19.60
2019-02-22T12:00:46.710Z,18.30
2019-02-22T12:03:24.623Z,17.30
2019-02-22T12:05:49.168Z,15.70
2019-02-22T12:08:19.538Z,14.60
2019-02-22T12:10:49.915Z,13.70
2019-02-22T12:13:20.275Z,13.30
2019-02-22T12:15:50.674Z,12.80
2019-02-22T12:18:21.020Z,12.70
2019-02-22T12:20:51.404Z,12.90
2019-02-22T12:23:21.788Z,13.80
2019-02-22T12:25:53.232Z,14.50
2019-02-22T12:28:23.613Z,14.60
2019-02-22T12:30:53.979Z,14.00
2019-02-22T12:33:24.358Z,14.20
2019-02-22T12:35:55.791Z,13.70
2019-02-22T12:38:28.142Z,14.60
2019-02-22T12:40:58.234Z,15.90
2019-02-22T12:43:28.615Z,16.00
2019-02-22T12:45:58.981Z,15.40
2019-02-22T12:48:29.365Z,14.90
2019-02-22T12:50:59.728Z,14.00
2019-02-22T12:53:30.112Z,14.80
2019-02-22T12:56:00.544Z,15.30
2019-02-22T12:58:30.931Z,15.50
2019-02-22T13:01:01.295Z,16.20
2019-02-22T13:03:33.555Z,16.30
2019-02-22T13:06:03.918Z,15.40
2019-02-22T13:08:34.352Z,15.00
2019-02-22T13:11:04.701Z,15.60
2019-02-22T13:13:35.105Z,15.30
2019-02-22T13:16:05.482Z,15.50
2019-02-22T13:18:35.876Z,16.10
2019-02-22T13:21:06.302Z,16.50
2019-02-22T13:23:36.725Z,15.40
2019-02-22T13:26:07.115Z,13.70
2019-02-22T13:28:37.608Z,12.70
2019-02-22T13:31:07.964Z,11.60
2019-02-22T13:33:40.295Z,10.80
2019-02-22T13:36:10.810Z,10.50
2019-02-22T13:38:41.176Z,9.60
2019-02-22T13:41:11.531Z,9.20
2019-02-22T13:43:41.915Z,8.60
2019-02-22T13:46:12.272Z,8.60
2019-02-22T13:48:42.661Z,8.30
2019-02-22T13:51:13.041Z,8.00
2019-02-22T13:53:43.398Z,8.00
2019-02-22T13:56:13.852Z,7.90
2019-02-22T13:58:44.219Z,7.80
2019-02-22T14:01:14.768Z,7.70
2019-02-22T14:03:45.119Z,7.80
2019-02-22T14:06:15.589Z,7.60
2019-02-22T14:08:45.939Z,7.60
2019-02-22T14:11:16.374Z,7.60
2019-02-22T14:13:46.866Z,7.50
2019-02-22T14:16:17.310Z,7.50
2019-02-22T14:18:47.660Z,7.40
2019-02-22T14:21:18.042Z,7.50
2019-02-22T14:23:48.397Z,7.60
2019-02-22T14:26:18.776Z,7.60
2019-02-22T14:28:49.347Z,7.60
2019-02-22T14:31:20.798Z,7.50
2019-02-22T14:33:51.158Z,7.70
2019-02-22T14:36:21.539Z,7.90
2019-02-22T14:38:52.055Z,8.10
2019-02-22T14:41:22.441Z,8.50
2019-02-22T14:43:52.789Z,8.70
2019-02-22T14:46:25.872Z,8.60
2019-02-22T14:48:55.229Z,8.10
2019-02-22T14:51:25.608Z,7.60
2019-02-22T14:53:56.117Z,7.40
2019-02-22T14:56:26.490Z,7.70
2019-02-22T14:58:56.850Z,8.30
2019-02-22T15:01:28.202Z,8.80
2019-02-22T15:03:58.555Z,9.20
2019-02-22T15:06:28.940Z,9.50
2019-02-22T15:08:59.297Z,9.90
2019-02-22T15:11:31.243Z,9.30
2019-02-22T15:14:02.214Z,8.50
2019-02-22T15:17:02.260Z,7.70
2019-02-22T15:19:32.809Z,7.00
2019-02-22T15:22:03.158Z,6.40
2019-02-22T15:24:33.809Z,6.00
2019-02-22T15:27:04.163Z,5.70
2019-02-22T15:29:34.617Z,5.60
2019-02-22T15:32:04.955Z,5.40
2019-02-22T15:34:35.394Z,5.20
2019-02-22T15:37:05.742Z,5.00
2019-02-22T15:39:55.464Z,4.80
2019-02-22T15:42:25.852Z,4.70
2019-02-22T15:44:56.266Z,4.60
2019-02-22T15:47:26.618Z,4.50
2019-02-22T15:49:57.171Z,4.40
2019-02-22T15:52:27.523Z,4.30
2019-02-22T15:54:57.904Z,4.20
2019-02-22T15:57:28.262Z,4.10
2019-02-22T15:59:58.718Z,4.10
2019-02-22T16:02:29.063Z,4.10
2019-02-22T16:05:01.104Z,4.00
2019-02-22T16:07:43.946Z,3.90
2019-02-22T16:10:07.036Z,3.80
2019-02-22T16:12:38.519Z,3.70
2019-02-22T16:15:11.601Z,3.70
2019-02-22T16:17:41.923Z,3.60
2019-02-22T16:20:12.544Z,3.50
2019-02-22T16:22:43.625Z,3.50
2019-02-22T16:25:19.652Z,3.40
2019-02-22T16:27:46.022Z,3.50
2019-02-22T16:30:19.448Z,3.40
2019-02-22T16:32:49.799Z,3.30
2019-02-22T16:35:20.176Z,3.20
2019-02-22T16:37:50.535Z,3.10
2019-02-22T16:40:21.150Z,3.00
2019-02-22T16:42:51.499Z,2.90
2019-02-22T16:45:41.340Z,2.80
2019-02-22T16:48:11.630Z,2.70
2019-02-22T16:50:42.302Z,2.60
2019-02-22T16:53:12.642Z,2.50
2019-02-22T16:55:43.033Z,2.40
2019-02-22T16:58:13.375Z,2.40
2019-02-22T17:00:43.757Z,2.30
2019-02-22T17:03:14.105Z,2.20
2019-02-22T17:05:44.490Z,2.10
2019-02-22T17:08:15.034Z,2.10
2019-02-22T17:10:45.411Z,1.90
2019-02-22T17:13:15.764Z,1.90
2019-02-22T17:15:46.145Z,1.90
2019-02-22T17:18:16.500Z,1.80
2019-02-22T17:20:46.987Z,1.70
2019-02-22T17:23:17.333Z,1.60
2019-02-22T17:25:47.715Z,1.60
2019-02-22T17:28:18.067Z,1.50
2019-02-22T17:30:48.501Z,1.40
2019-02-22T17:33:18.865Z,1.30
2019-02-22T17:35:49.690Z,1.20
2019-02-22T17:38:20.420Z,1.20
2019-02-22T17:40:50.805Z,1.10
2019-02-22T17:43:22.443Z,1.10
2019-02-22T17:45:52.859Z,1.00
2019-02-22T17:48:23.211Z,0.90
2019-02-22T17:50:53.600Z,0.90
2019-02-22T17:53:23.950Z,0.80
2019-02-22T17:55:54.336Z,0.70
2019-02-22T17:58:24.860Z,0.60
2019-02-22T18:00:55.700Z,0.50
2019-02-22T18:03:26.067Z,0.50
2019-02-22T18:05:56.456Z,0.40
2019-02-22T18:08:26.820Z,0.40
2019-02-22T18:10:57.208Z,0.30
2019-02-22T18:13:27.574Z,0.30
2019-02-22T18:15:57.970Z,0.20
2019-02-22T18:18:28.342Z,0.20
2019-02-22T18:20:58.736Z,0.20
2019-02-22T18:23:29.097Z,0.10
2019-02-22T18:26:00.550Z,0.10
2019-02-22T18:28:30.919Z,0.10
2019-02-22T18:31:01.303Z,0.00
2019-02-22T18:33:31.658Z,0.00
2019-02-22T18:36:02.061Z,-0.10
2019-02-22T18:38:32.424Z,-0.20
2019-02-22T18:41:03.749Z,-0.20
2019-02-22T18:43:34.124Z,-0.30
2019-02-22T18:46:04.523Z,-0.30
2019-02-22T18:48:34.890Z,-0.30
2019-02-22T18:51:05.289Z,-0.30
2019-02-22T18:53:35.648Z,-0.40
2019-02-22T18:56:06.049Z,-0.50
2019-02-22T18:58:36.414Z,-0.50
2019-02-22T19:01:06.803Z,-0.50
2019-02-22T19:03:37.170Z,-0.50
2019-02-22T19:06:08.795Z,-0.50
2019-02-22T19:08:39.161Z,-0.50
2019-02-22T19:11:09.551Z,-0.50
2019-02-22T19:13:39.910Z,-0.60
2019-02-22T19:16:10.300Z,-0.60
2019-02-22T19:18:40.667Z,-0.60
2019-02-22T19:21:11.056Z,-0.60
2019-02-22T19:23:41.415Z,-0.60
2019-02-22T19:26:11.809Z,-0.50
2019-02-22T19:28:42.172Z,-0.50
2019-02-22T19:31:12.579Z,-0.40
2019-02-22T19:33:42.950Z,-0.40
2019-02-22T19:36:13.346Z,-0.50
2019-02-22T19:38:43.728Z,-0.50
2019-02-22T19:41:14.119Z,-0.50
2019-02-22T19:43:44.483Z,-0.50
2019-02-22T19:46:14.881Z,-0.50
2019-02-22T19:48:45.298Z,-0.50
2019-02-22T19:51:15.970Z,-0.40
2019-02-22T19:53:46.486Z,-0.40
2019-02-22T19:56:17.169Z,-0.40
2019-02-22T19:58:47.629Z,-0.40
2019-02-22T20:01:18.025Z,-0.40
2019-02-22T20:03:48.391Z,-0.40
2019-02-22T20:06:18.848Z,-0.40
2019-02-22T20:08:49.215Z,-0.40
2019-02-22T20:11:19.614Z,-0.40
2019-02-22T20:13:50.009Z,-0.30
2019-02-22T20:16:21.007Z,-0.20
2019-02-22T20:18:51.543Z,-0.20
2019-02-22T20:21:21.913Z,-0.20
2019-02-22T20:23:52.386Z,-0.20
2019-02-22T20:26:22.778Z,-0.20
2019-02-22T20:28:53.179Z,-0.20
2019-02-22T20:31:23.762Z,-0.20
2019-02-22T20:33:54.156Z,-0.20
2019-02-22T20:36:28.529Z,-0.20
2019-02-22T20:38:57.082Z,-0.30
2019-02-22T20:41:27.776Z,-0.30
2019-02-22T20:43:58.201Z,-0.30
2019-02-22T20:46:28.894Z,-0.20
2019-02-22T20:49:11.893Z,-0.20
2019-02-22T20:51:42.313Z,-0.20
2019-02-22T20:54:12.694Z,-0.20
2019-02-22T20:56:43.056Z,-0.20
2019-02-22T20:59:13.450Z,-0.10
2019-02-22T21:01:43.816Z,0.00
2019-02-22T21:04:14.208Z,0.00
2019-02-22T21:06:44.572Z,-0.10
2019-02-22T21:09:15.049Z,-0.10
2019-02-22T21:11:45.423Z,-0.10
2019-02-22T21:14:15.892Z,-0.10
2019-02-22T21:16:46.697Z,-0.10
2019-02-22T21:19:17.079Z,0.00
2019-02-22T21:21:47.446Z,0.00
2019-02-22T21:24:18.100Z,-0.10
2019-02-22T21:26:48.536Z,-0.10
2019-02-22T21:29:18.936Z,-0.20
2019-02-22T21:31:49.303Z,-0.30
2019-02-22T21:34:19.702Z,-0.30
2019-02-22T21:36:50.077Z,-0.20
2019-02-22T21:39:20.461Z,-0.30
2019-02-22T21:41:50.828Z,-0.40
2019-02-22T21:44:21.227Z,-0.40
2019-02-22T21:46:51.624Z,-0.50
2019-02-22T21:49:22.026Z,-0.40
2019-02-22T21:51:52.396Z,-0.40
2019-02-22T21:54:22.793Z,-0.40
2019-02-22T21:56:53.459Z,-0.50
2019-02-22T21:59:23.859Z,-0.50
2019-02-22T22:01:54.214Z,-0.60
2019-02-22T22:04:24.618Z,-0.60
2019-02-22T22:06:54.980Z,-0.60
2019-02-22T22:09:25.483Z,-0.60
2019-02-22T22:11:55.869Z,-0.50
2019-02-22T22:14:26.281Z,-0.60
2019-02-22T22:16:56.649Z,-0.70
2019-02-22T22:19:27.038Z,-0.70
2019-02-22T22:21:57.476Z,-0.70
2019-02-22T22:24:27.861Z,-0.80
2019-02-22T22:26:58.519Z,-0.70
2019-02-22T22:29:29.980Z,-0.80
2019-02-22T22:32:00.348Z,-0.80
2019-02-22T22:34:30.737Z,-0.80
2019-02-22T22:37:01.103Z,-0.80
2019-02-22T22:39:31.574Z,-0.80
2019-02-22T22:42:01.943Z,-0.80
2019-02-22T22:44:32.346Z,-0.80
2019-02-22T22:47:03.675Z,-0.80
2019-02-22T22:49:35.659Z,-0.80
2019-02-22T22:52:06.718Z,-0.90
2019-02-22T22:54:37.096Z,-0.90
2019-02-22T22:57:07.550Z,-0.90
2019-02-22T22:59:38.613Z,-0.90
2019-02-22T23:02:09.425Z,-0.90
2019-02-22T23:04:39.815Z,-0.90
2019-02-22T23:07:10.183Z,-0.90
2019-02-22T23:09:40.572Z,-0.90
2019-02-22T23:12:10.944Z,-0.90
2019-02-22T23:14:41.370Z,-1.00
2019-02-22T23:17:11.734Z,-1.10
2019-02-22T23:19:42.121Z,-1.10
2019-02-22T23:22:12.491Z,-1.00
2019-02-22T23:24:42.902Z,-1.00
2019-02-22T23:27:13.266Z,-1.00
2019-02-22T23:29:43.658Z,-1.00
2019-02-22T23:32:14.022Z,-1.00
2019-02-22T23:34:44.412Z,-1.00
2019-02-22T23:37:14.779Z,-0.90
2019-02-22T23:39:45.161Z,-0.90
2019-02-22T23:42:17.144Z,-0.90
2019-02-22T23:44:47.528Z,-0.90
2019-02-22T23:47:17.894Z,-1.00
2019-02-22T23:49:48.283Z,-0.90
2019-02-22T23:52:18.682Z,-1.00
2019-02-22T23:54:49.089Z,-1.00
2019-02-22T23:57:19.482Z,-1.00
2019-02-22T23:59:49.843Z,-1.00
